createdAt,value
2017-10-16T00:00:52.730Z,15.17
2017-10-16T00:03:20.582Z,15.06
2017-10-16T00:05:48.343Z,15.14
2017-10-16T00:08:15.864Z,15.21
2017-10-16T00:10:43.384Z,15.33
2017-10-16T00:13:11.243Z,15.26
2017-10-16T00:15:38.803Z,15.20
2017-10-16T00:18:06.363Z,15.15
2017-10-16T00:20:35.262Z,15.10
2017-10-16T00:23:02.795Z,14.88
2017-10-16T00:25:30.419Z,14.79
2017-10-16T00:27:57.984Z,14.72
2017-10-16T00:30:25.535Z,14.67
2017-10-16T00:32:53.082Z,14.57
2017-10-16T00:35:20.710Z,14.71
2017-10-16T00:37:48.240Z,14.68
2017-10-16T00:40:15.768Z,14.62
2017-10-16T00:42:43.387Z,14.72
2017-10-16T00:45:10.919Z,14.84
2017-10-16T00:47:38.448Z,14.82
2017-10-16T00:50:06.283Z,14.80
2017-10-16T00:52:33.843Z,14.78
2017-10-16T00:55:01.385Z,14.83
2017-10-16T00:57:28.994Z,14.73
2017-10-16T00:59:56.611Z,14.66
2017-10-16T01:02:24.166Z,14.68
2017-10-16T01:04:51.939Z,14.65
2017-10-16T01:07:19.491Z,14.51
2017-10-16T01:09:47.057Z,14.53
2017-10-16T01:12:14.795Z,14.52
2017-10-16T01:14:42.373Z,14.50
2017-10-16T01:17:09.930Z,14.27
2017-10-16T01:19:37.883Z,14.17
2017-10-16T01:22:05.460Z,14.12
2017-10-16T01:24:33.020Z,14.13
2017-10-16T01:27:00.683Z,14.17
2017-10-16T01:29:28.216Z,14.18
2017-10-16T01:31:55.749Z,14.27
2017-10-16T01:34:23.356Z,14.19
2017-10-16T01:36:50.948Z,14.18
2017-10-16T01:39:18.499Z,14.15
2017-10-16T01:41:46.075Z,13.97
2017-10-16T01:44:13.611Z,13.98
2017-10-16T01:46:41.153Z,14.06
2017-10-16T01:49:09.104Z,13.94
2017-10-16T01:51:36.681Z,13.90
2017-10-16T01:54:04.239Z,13.84
2017-10-16T01:56:31.928Z,13.82
2017-10-16T01:58:59.457Z,13.79
2017-10-16T02:01:26.992Z,13.77
2017-10-16T02:03:54.578Z,13.81
2017-10-16T02:06:22.110Z,13.91
2017-10-16T02:08:49.635Z,13.98
2017-10-16T02:11:17.256Z,13.87
2017-10-16T02:13:44.783Z,13.81
2017-10-16T02:16:12.324Z,13.75
2017-10-16T02:18:40.015Z,13.70
2017-10-16T02:21:07.539Z,13.81
2017-10-16T02:23:35.100Z,13.73
2017-10-16T02:26:02.918Z,13.71
2017-10-16T02:28:30.486Z,13.71
2017-10-16T02:30:58.035Z,13.55
2017-10-16T02:33:25.809Z,13.52
2017-10-16T02:35:53.358Z,13.39
2017-10-16T02:38:20.918Z,13.64
2017-10-16T02:40:48.664Z,13.63
2017-10-16T02:43:16.235Z,13.78
2017-10-16T02:45:43.800Z,13.68
2017-10-16T02:48:11.461Z,13.71
2017-10-16T02:50:38.985Z,13.90
2017-10-16T02:53:06.582Z,13.74
2017-10-16T02:55:34.324Z,13.76
2017-10-16T02:58:01.940Z,13.88
2017-10-16T03:00:29.479Z,13.68
2017-10-16T03:02:57.063Z,13.59
2017-10-16T03:05:24.600Z,13.66
2017-10-16T03:07:52.131Z,13.74
2017-10-16T03:10:19.806Z,13.78
2017-10-16T03:12:47.340Z,13.68
2017-10-16T03:15:14.879Z,13.49
2017-10-16T03:17:42.581Z,13.65
2017-10-16T03:20:10.106Z,13.66
2017-10-16T03:22:37.640Z,13.56
2017-10-16T03:25:05.361Z,13.62
2017-10-16T03:27:32.919Z,13.46
2017-10-16T03:30:00.580Z,13.37
2017-10-16T03:32:28.159Z,13.28
2017-10-16T03:34:55.802Z,13.30
2017-10-16T03:37:23.361Z,13.34
2017-10-16T03:39:51.329Z,13.12
2017-10-16T03:42:18.860Z,13.09
2017-10-16T03:44:46.394Z,13.21
2017-10-16T03:47:14.199Z,13.27
2017-10-16T03:49:41.719Z,13.32
2017-10-16T03:52:09.264Z,13.29
2017-10-16T03:54:36.823Z,13.13
2017-10-16T03:57:04.355Z,12.97
2017-10-16T03:59:31.904Z,13.07
2017-10-16T04:01:59.655Z,12.90
2017-10-16T04:04:27.197Z,13.13
2017-10-16T04:06:54.788Z,13.19
2017-10-16T04:09:22.560Z,12.96
2017-10-16T04:11:50.110Z,13.14
2017-10-16T04:14:17.669Z,13.13
2017-10-16T04:16:45.320Z,13.08
2017-10-16T04:19:12.847Z,12.96
2017-10-16T04:21:40.371Z,13.01
2017-10-16T04:24:08.104Z,12.83
2017-10-16T04:26:35.669Z,12.96
2017-10-16T04:29:03.228Z,13.02
2017-10-16T04:31:31.007Z,13.15
2017-10-16T04:33:58.536Z,13.22
2017-10-16T04:36:26.063Z,13.49
2017-10-16T04:38:53.771Z,13.56
2017-10-16T04:41:21.332Z,13.51
2017-10-16T04:43:48.890Z,13.47
2017-10-16T04:46:16.567Z,13.61
2017-10-16T04:48:44.134Z,13.77
2017-10-16T04:51:11.716Z,13.89
2017-10-16T04:53:39.567Z,14.00
2017-10-16T04:56:07.188Z,13.78
2017-10-16T04:58:34.772Z,13.65
2017-10-16T05:01:02.473Z,13.69
2017-10-16T05:03:30.140Z,13.64
2017-10-16T05:05:57.834Z,13.55
2017-10-16T05:08:25.665Z,13.49
2017-10-16T05:10:53.264Z,13.45
2017-10-16T05:13:20.820Z,13.45
2017-10-16T05:15:48.668Z,13.49
2017-10-16T05:18:16.208Z,13.35
2017-10-16T05:20:43.743Z,13.31
2017-10-16T05:23:11.532Z,13.19
2017-10-16T05:25:39.069Z,13.24
2017-10-16T05:28:06.621Z,13.12
2017-10-16T05:30:34.475Z,12.88
2017-10-16T05:33:02.031Z,13.17
2017-10-16T05:35:29.595Z,12.94
2017-10-16T05:37:57.459Z,12.98
2017-10-16T05:40:25.105Z,12.75
2017-10-16T05:42:52.655Z,12.45
2017-10-16T05:45:20.615Z,12.50
2017-10-16T05:47:48.143Z,12.27
2017-10-16T05:50:15.700Z,12.38
2017-10-16T05:52:43.400Z,12.34
2017-10-16T05:55:11.016Z,12.37
2017-10-16T05:57:38.563Z,12.42
2017-10-16T06:00:06.407Z,12.57
2017-10-16T06:02:34.004Z,12.78
2017-10-16T06:05:01.563Z,12.79
2017-10-16T06:07:29.270Z,12.86
2017-10-16T06:09:56.839Z,13.02
2017-10-16T06:12:24.382Z,12.88
2017-10-16T06:14:51.990Z,12.72
2017-10-16T06:17:19.546Z,12.72
2017-10-16T06:19:47.079Z,12.71
2017-10-16T06:22:14.951Z,12.81
2017-10-16T06:24:42.501Z,12.83
2017-10-16T06:27:10.061Z,13.17
2017-10-16T06:29:37.751Z,13.11
2017-10-16T06:32:05.346Z,13.09
2017-10-16T06:34:32.871Z,13.30
2017-10-16T06:37:00.639Z,13.50
2017-10-16T06:39:28.176Z,13.39
2017-10-16T06:41:55.716Z,13.49
2017-10-16T06:44:23.397Z,13.51
2017-10-16T06:46:51.008Z,13.67
2017-10-16T06:49:18.603Z,13.79
2017-10-16T06:51:46.474Z,13.92
2017-10-16T06:54:14.312Z,14.18
2017-10-16T06:56:41.897Z,14.24
2017-10-16T06:59:09.552Z,14.42
2017-10-16T07:01:37.122Z,14.60
2017-10-16T07:04:04.768Z,14.55
2017-10-16T07:06:32.443Z,14.60
2017-10-16T07:09:00.034Z,14.44
2017-10-16T07:11:27.591Z,14.46
2017-10-16T07:13:55.362Z,14.66
2017-10-16T07:16:22.903Z,14.73
2017-10-16T07:18:50.456Z,14.92
2017-10-16T07:21:18.437Z,14.92
2017-10-16T07:23:45.964Z,15.13
2017-10-16T07:26:13.524Z,15.05
2017-10-16T07:28:41.270Z,15.23
2017-10-16T07:31:08.804Z,15.28
2017-10-16T07:33:36.338Z,15.56
2017-10-16T07:36:04.364Z,15.54
2017-10-16T07:38:31.950Z,15.59
2017-10-16T07:40:59.621Z,15.59
2017-10-16T07:43:27.259Z,15.89
2017-10-16T07:45:54.851Z,16.05
2017-10-16T07:48:22.433Z,16.15
2017-10-16T07:50:50.269Z,16.48
2017-10-16T07:53:17.837Z,16.35
2017-10-16T07:55:45.391Z,16.42
2017-10-16T07:58:13.127Z,16.79
2017-10-16T08:00:40.690Z,17.12
2017-10-16T08:03:08.329Z,17.26
2017-10-16T08:05:36.040Z,17.51
2017-10-16T08:08:03.786Z,17.54
2017-10-16T08:10:31.328Z,17.52
2017-10-16T08:12:59.098Z,17.88
2017-10-16T08:15:26.683Z,18.21
2017-10-16T08:17:54.223Z,18.23
2017-10-16T08:20:21.987Z,18.08
2017-10-16T08:22:49.536Z,18.49
2017-10-16T08:25:17.097Z,18.72
2017-10-16T08:27:44.994Z,18.66
2017-10-16T08:30:12.524Z,18.99
2017-10-16T08:32:40.126Z,19.31
2017-10-16T08:35:07.972Z,19.48
2017-10-16T08:37:35.646Z,19.55
2017-10-16T08:40:03.171Z,19.80
2017-10-16T08:42:31.456Z,19.57
2017-10-16T08:44:59.008Z,20.09
2017-10-16T08:47:26.548Z,20.11
2017-10-16T08:49:54.403Z,20.44
2017-10-16T08:52:23.165Z,20.58
2017-10-16T08:54:52.517Z,20.62
2017-10-16T08:57:20.322Z,20.75
2017-10-16T08:59:48.174Z,20.99
2017-10-16T09:02:15.868Z,21.01
2017-10-16T09:04:45.010Z,21.17
2017-10-16T09:07:12.953Z,21.72
2017-10-16T09:09:40.763Z,22.49
2017-10-16T09:12:08.865Z,25.54
2017-10-16T09:14:36.983Z,28.30
2017-10-16T09:17:04.655Z,31.24
2017-10-16T09:19:32.628Z,32.67
2017-10-16T09:22:00.695Z,32.60
2017-10-16T09:24:30.292Z,33.33
2017-10-16T09:26:59.061Z,33.52
2017-10-16T09:29:26.844Z,34.26
2017-10-16T09:31:54.410Z,35.29
2017-10-16T09:34:23.397Z,36.14
2017-10-16T09:36:51.385Z,36.48
2017-10-16T09:39:19.848Z,37.76
2017-10-16T09:41:50.197Z,36.37
2017-10-16T09:44:18.140Z,38.16
2017-10-16T09:46:47.192Z,38.43
2017-10-16T09:49:15.107Z,39.31
2017-10-16T09:51:53.213Z,39.01
2017-10-16T09:54:21.290Z,38.73
2017-10-16T09:56:48.940Z,40.15
2017-10-16T09:59:16.892Z,40.62
2017-10-16T10:01:44.811Z,39.99
2017-10-16T10:04:12.546Z,41.11
2017-10-16T10:06:41.082Z,42.13
2017-10-16T10:09:09.909Z,43.92
2017-10-16T10:11:37.775Z,42.43
2017-10-16T10:14:05.541Z,41.98
2017-10-16T10:16:34.032Z,43.18
2017-10-16T10:19:01.808Z,43.79
2017-10-16T10:21:29.469Z,43.12
2017-10-16T10:23:57.419Z,42.58
2017-10-16T10:26:25.178Z,42.98
2017-10-16T10:28:53.052Z,43.00
2017-10-16T10:31:21.855Z,43.50
2017-10-16T10:33:50.046Z,44.01
2017-10-16T10:36:17.884Z,44.01
2017-10-16T10:38:45.771Z,44.49
2017-10-16T10:41:15.142Z,44.78
2017-10-16T10:43:42.803Z,45.15
2017-10-16T10:46:11.022Z,45.45
2017-10-16T10:48:38.588Z,46.43
2017-10-16T10:51:06.375Z,45.53
2017-10-16T10:53:36.523Z,46.02
2017-10-16T10:56:04.236Z,46.52
2017-10-16T10:58:31.826Z,48.36
2017-10-16T11:01:00.020Z,46.59
2017-10-16T11:03:28.089Z,47.23
2017-10-16T11:05:55.877Z,46.11
2017-10-16T11:08:23.729Z,47.46
2017-10-16T11:10:51.564Z,47.99
2017-10-16T11:13:19.349Z,49.04
2017-10-16T11:15:47.634Z,48.45
2017-10-16T11:18:15.595Z,48.01
2017-10-16T11:20:43.361Z,47.62
2017-10-16T11:23:12.046Z,47.24
2017-10-16T11:25:41.035Z,47.56
2017-10-16T11:28:09.723Z,47.88
2017-10-16T11:30:37.697Z,48.85
2017-10-16T11:33:05.430Z,48.54
2017-10-16T11:35:34.902Z,48.95
2017-10-16T11:38:02.941Z,49.34
2017-10-16T11:40:30.451Z,49.22
2017-10-16T11:42:59.230Z,49.26
2017-10-16T11:45:27.450Z,49.97
2017-10-16T11:47:55.521Z,49.40
2017-10-16T11:50:25.908Z,49.02
2017-10-16T11:52:55.684Z,48.99
2017-10-16T11:55:25.090Z,49.22
2017-10-16T11:57:53.825Z,49.38
2017-10-16T12:00:23.342Z,48.82
2017-10-16T12:02:51.674Z,48.81
2017-10-16T12:05:19.559Z,49.29
2017-10-16T12:07:47.465Z,48.21
2017-10-16T12:10:15.305Z,47.43
2017-10-16T12:12:43.291Z,44.73
2017-10-16T12:15:11.984Z,41.15
2017-10-16T12:17:39.850Z,38.24
2017-10-16T12:20:08.121Z,36.33
2017-10-16T12:22:35.711Z,33.80
2017-10-16T12:25:03.275Z,32.19
2017-10-16T12:27:31.458Z,31.47
2017-10-16T12:29:58.994Z,30.78
2017-10-16T12:32:26.850Z,30.37
2017-10-16T12:34:55.065Z,30.22
2017-10-16T12:37:25.171Z,29.74
2017-10-16T12:39:52.907Z,29.35
2017-10-16T12:42:20.972Z,29.09
2017-10-16T12:44:49.659Z,28.81
2017-10-16T12:47:17.326Z,28.77
2017-10-16T12:49:45.220Z,29.08
2017-10-16T12:52:12.799Z,28.64
2017-10-16T12:54:40.715Z,28.55
2017-10-16T12:57:08.394Z,28.40
2017-10-16T12:59:36.100Z,28.28
2017-10-16T13:02:03.801Z,28.01
2017-10-16T13:04:31.770Z,27.79
2017-10-16T13:07:00.252Z,27.55
2017-10-16T13:09:28.014Z,27.31
2017-10-16T13:11:56.297Z,27.59
2017-10-16T13:14:23.971Z,27.55
2017-10-16T13:16:52.239Z,27.61
2017-10-16T13:19:20.404Z,27.84
2017-10-16T13:21:48.206Z,27.79
2017-10-16T13:24:17.775Z,27.67
2017-10-16T13:26:46.059Z,27.60
2017-10-16T13:29:13.611Z,27.42
2017-10-16T13:31:41.208Z,27.34
2017-10-16T13:34:09.891Z,27.44
2017-10-16T13:36:37.956Z,27.57
2017-10-16T13:39:07.346Z,27.46
2017-10-16T13:41:35.289Z,27.53
2017-10-16T13:44:02.943Z,27.41
2017-10-16T13:46:30.722Z,27.48
2017-10-16T13:48:58.908Z,27.39
2017-10-16T13:51:26.457Z,27.29
2017-10-16T13:53:54.117Z,27.41
2017-10-16T13:56:21.814Z,27.34
2017-10-16T13:58:51.268Z,27.18
2017-10-16T14:01:18.942Z,27.20
2017-10-16T14:03:47.118Z,27.37
2017-10-16T14:06:14.904Z,27.44
2017-10-16T14:08:42.988Z,27.30
2017-10-16T14:11:11.713Z,27.39
2017-10-16T14:13:39.743Z,27.43
2017-10-16T14:16:07.883Z,27.44
2017-10-16T14:18:36.669Z,27.52
2017-10-16T14:21:05.355Z,27.43
2017-10-16T14:23:34.044Z,27.25
2017-10-16T14:26:02.125Z,27.26
2017-10-16T14:28:29.655Z,27.16
2017-10-16T14:30:57.183Z,27.14
2017-10-16T14:33:25.018Z,27.13
2017-10-16T14:35:52.560Z,27.00
2017-10-16T14:38:20.522Z,27.00
2017-10-16T14:40:48.261Z,27.15
2017-10-16T14:43:15.780Z,26.91
2017-10-16T14:45:43.319Z,26.92
2017-10-16T14:48:10.879Z,26.87
2017-10-16T14:50:38.454Z,26.88
2017-10-16T14:53:06.049Z,26.84
2017-10-16T14:55:33.641Z,26.72
2017-10-16T14:58:01.200Z,26.52
2017-10-16T15:00:28.963Z,26.47
2017-10-16T15:02:56.544Z,26.41
2017-10-16T15:05:24.212Z,26.26
2017-10-16T15:07:51.754Z,26.38
2017-10-16T15:10:19.508Z,26.32
2017-10-16T15:12:47.068Z,26.34
2017-10-16T15:15:14.589Z,26.18
2017-10-16T15:17:42.185Z,26.09
2017-10-16T15:20:09.787Z,26.07
2017-10-16T15:22:37.366Z,25.93
2017-10-16T15:25:05.019Z,26.12
2017-10-16T15:27:32.559Z,25.99
2017-10-16T15:30:00.084Z,25.89
2017-10-16T15:32:28.052Z,25.94
2017-10-16T15:34:55.715Z,25.85
2017-10-16T15:37:23.280Z,25.81
2017-10-16T15:39:51.062Z,25.75
2017-10-16T15:42:19.927Z,25.62
2017-10-16T15:44:47.495Z,25.43
2017-10-16T15:47:16.380Z,25.35
2017-10-16T15:49:44.038Z,25.21
2017-10-16T15:52:11.597Z,25.14
2017-10-16T15:54:39.451Z,24.97
2017-10-16T15:57:07.126Z,24.87
2017-10-16T15:59:34.813Z,24.78
2017-10-16T16:02:03.268Z,24.66
2017-10-16T16:04:30.899Z,24.48
2017-10-16T16:06:59.246Z,24.32
2017-10-16T16:09:27.481Z,24.14
2017-10-16T16:11:55.038Z,23.97
2017-10-16T16:14:22.814Z,23.80
2017-10-16T16:16:50.720Z,23.63
2017-10-16T16:19:18.538Z,23.48
2017-10-16T16:21:46.424Z,23.33
2017-10-16T16:24:14.271Z,23.15
2017-10-16T16:26:41.998Z,23.02
2017-10-16T16:29:09.565Z,22.87
2017-10-16T16:31:37.470Z,22.71
2017-10-16T16:34:05.227Z,22.53
2017-10-16T16:36:32.885Z,22.37
2017-10-16T16:39:00.884Z,22.22
2017-10-16T16:41:28.619Z,22.10
2017-10-16T16:43:56.404Z,21.98
2017-10-16T16:46:24.143Z,21.91
2017-10-16T16:48:51.814Z,21.82
2017-10-16T16:51:19.468Z,21.92
2017-10-16T16:53:47.542Z,21.87
2017-10-16T16:56:16.144Z,21.80
2017-10-16T16:58:44.502Z,21.72
2017-10-16T17:01:12.516Z,21.62
2017-10-16T17:03:40.455Z,21.49
2017-10-16T17:06:08.224Z,21.33
2017-10-16T17:08:36.501Z,21.20
2017-10-16T17:11:04.528Z,21.10
2017-10-16T17:13:33.244Z,21.05
2017-10-16T17:16:01.631Z,21.00
2017-10-16T17:18:29.487Z,20.96
2017-10-16T17:20:58.269Z,20.95
2017-10-16T17:23:26.340Z,20.89
2017-10-16T17:25:54.317Z,20.82
2017-10-16T17:28:22.278Z,20.76
2017-10-16T17:30:50.616Z,20.73
2017-10-16T17:33:18.932Z,20.65
2017-10-16T17:35:46.770Z,20.59
2017-10-16T17:38:14.579Z,20.56
2017-10-16T17:40:42.533Z,20.50
2017-10-16T17:43:10.421Z,20.41
2017-10-16T17:45:38.468Z,20.50
2017-10-16T17:48:07.277Z,20.43
2017-10-16T17:50:35.745Z,20.42
2017-10-16T17:53:03.706Z,20.38
2017-10-16T17:55:31.674Z,20.27
2017-10-16T17:58:00.157Z,20.21
2017-10-16T18:00:28.159Z,20.18
2017-10-16T18:02:56.093Z,19.91
2017-10-16T18:05:23.959Z,19.86
2017-10-16T18:07:52.051Z,19.86
2017-10-16T18:10:20.001Z,19.79
2017-10-16T18:12:47.867Z,19.72
2017-10-16T18:15:15.917Z,19.59
2017-10-16T18:17:43.700Z,19.40
2017-10-16T18:20:12.284Z,19.46
2017-10-16T18:22:40.560Z,19.39
2017-10-16T18:25:08.462Z,19.28
2017-10-16T18:27:36.702Z,19.30
2017-10-16T18:30:06.104Z,19.29
2017-10-16T18:32:34.763Z,19.23
2017-10-16T18:35:03.855Z,19.22
2017-10-16T18:37:31.922Z,19.22
2017-10-16T18:39:59.823Z,19.25
2017-10-16T18:42:27.741Z,19.20
2017-10-16T18:44:55.982Z,19.03
2017-10-16T18:47:23.833Z,18.94
2017-10-16T18:49:51.699Z,18.80
2017-10-16T18:52:20.691Z,18.64
2017-10-16T18:54:49.172Z,18.47
2017-10-16T18:57:17.109Z,18.21
2017-10-16T18:59:46.360Z,18.28
2017-10-16T19:02:14.432Z,18.21
2017-10-16T19:04:42.276Z,18.19
2017-10-16T19:07:10.401Z,18.31
2017-10-16T19:09:38.768Z,18.27
2017-10-16T19:12:06.796Z,18.32
2017-10-16T19:14:35.381Z,18.32
2017-10-16T19:17:04.272Z,17.98
2017-10-16T19:19:32.443Z,17.76
2017-10-16T19:22:00.617Z,17.75
2017-10-16T19:24:29.099Z,18.05
2017-10-16T19:26:56.964Z,18.12
2017-10-16T19:29:25.217Z,17.92
2017-10-16T19:31:53.312Z,17.86
2017-10-16T19:34:21.139Z,17.81
2017-10-16T19:36:49.354Z,17.61
2017-10-16T19:39:17.221Z,17.49
2017-10-16T19:41:45.290Z,17.18
2017-10-16T19:44:13.438Z,17.31
2017-10-16T19:46:41.540Z,17.08
2017-10-16T19:49:09.508Z,17.22
2017-10-16T19:51:37.677Z,17.07
2017-10-16T19:54:05.544Z,17.24
2017-10-16T19:56:33.409Z,17.22
2017-10-16T19:59:01.685Z,17.06
2017-10-16T20:01:30.449Z,16.98
2017-10-16T20:03:58.338Z,16.84
2017-10-16T20:06:26.513Z,16.94
2017-10-16T20:08:55.120Z,16.76
2017-10-16T20:11:23.168Z,16.85
2017-10-16T20:13:51.342Z,16.93
2017-10-16T20:16:19.310Z,16.82
2017-10-16T20:18:47.380Z,16.81
2017-10-16T20:21:15.457Z,16.74
2017-10-16T20:23:43.276Z,16.82
2017-10-16T20:26:11.287Z,16.70
2017-10-16T20:28:39.466Z,16.57
2017-10-16T20:31:07.453Z,16.60
2017-10-16T20:33:35.500Z,16.54
2017-10-16T20:36:03.469Z,16.74
2017-10-16T20:38:31.223Z,16.60
2017-10-16T20:40:59.104Z,16.71
2017-10-16T20:43:27.437Z,16.71
2017-10-16T20:45:56.266Z,16.76
2017-10-16T20:48:24.143Z,16.79
2017-10-16T20:50:52.101Z,16.77
2017-10-16T20:53:19.862Z,16.67
2017-10-16T20:55:47.937Z,16.41
2017-10-16T20:58:16.211Z,16.55
2017-10-16T21:00:44.180Z,16.54
2017-10-16T21:03:11.947Z,16.66
2017-10-16T21:05:39.678Z,16.70
2017-10-16T21:08:07.371Z,16.61
2017-10-16T21:10:35.238Z,16.76
2017-10-16T21:13:03.205Z,16.73
2017-10-16T21:15:30.788Z,16.78
2017-10-16T21:17:58.447Z,16.87
2017-10-16T21:20:26.318Z,16.92
2017-10-16T21:22:53.891Z,16.79
2017-10-16T21:25:21.675Z,16.84
2017-10-16T21:27:49.505Z,16.73
2017-10-16T21:30:17.041Z,16.52
2017-10-16T21:32:44.701Z,16.66
2017-10-16T21:35:12.312Z,16.44
2017-10-16T21:37:39.935Z,16.46
2017-10-16T21:40:07.455Z,16.42
2017-10-16T21:42:35.395Z,16.27
2017-10-16T21:45:06.704Z,16.32
2017-10-16T21:47:34.235Z,16.28
2017-10-16T21:50:02.003Z,16.22
2017-10-16T21:52:29.628Z,16.32
2017-10-16T21:54:57.326Z,16.31
2017-10-16T21:57:25.194Z,16.17
2017-10-16T21:59:52.760Z,16.16
2017-10-16T22:02:20.279Z,16.29
2017-10-16T22:04:48.072Z,16.22
2017-10-16T22:07:15.615Z,16.11
2017-10-16T22:09:43.143Z,15.97
2017-10-16T22:12:10.854Z,16.16
2017-10-16T22:14:38.376Z,16.06
2017-10-16T22:17:05.924Z,16.00
2017-10-16T22:19:33.734Z,15.94
2017-10-16T22:22:01.319Z,16.01
2017-10-16T22:24:29.280Z,15.99
2017-10-16T22:26:56.933Z,15.83
2017-10-16T22:29:24.461Z,15.67
2017-10-16T22:31:51.990Z,15.70
2017-10-16T22:34:19.703Z,16.04
2017-10-16T22:36:47.228Z,16.13
2017-10-16T22:39:14.771Z,16.29
2017-10-16T22:41:42.554Z,16.31
2017-10-16T22:44:10.084Z,16.23
2017-10-16T22:46:37.615Z,16.21
2017-10-16T22:49:05.467Z,16.24
2017-10-16T22:51:32.992Z,16.42
2017-10-16T22:57:05.233Z,16.32
2017-10-16T22:59:32.979Z,16.48
2017-10-16T23:02:00.507Z,16.38
2017-10-16T23:04:28.064Z,16.29
2017-10-16T23:06:55.859Z,16.30
2017-10-16T23:09:23.419Z,16.39
2017-10-16T23:11:50.940Z,16.48
2017-10-16T23:14:18.513Z,16.43
2017-10-16T23:16:46.035Z,16.48
2017-10-16T23:19:13.590Z,16.56
2017-10-16T23:21:41.244Z,16.55
2017-10-16T23:24:08.895Z,16.64
2017-10-16T23:26:36.411Z,16.66
2017-10-16T23:29:04.220Z,16.50
2017-10-16T23:31:31.759Z,16.52
2017-10-16T23:33:59.275Z,16.55
2017-10-16T23:36:27.119Z,16.50
2017-10-16T23:38:54.744Z,16.62
2017-10-16T23:41:22.835Z,16.57
2017-10-16T23:43:50.681Z,16.53
2017-10-16T23:46:18.216Z,16.59
2017-10-16T23:48:45.731Z,16.39
2017-10-16T23:51:13.432Z,16.32
2017-10-16T23:53:40.955Z,16.44
2017-10-16T23:56:08.479Z,16.33
2017-10-16T23:58:36.156Z,16.15
